CSN3811 ZHHH-ZUGY
Flight info
| Callsign | CSN3811 |
|---|---|
| Flight time | N/A |
| Altitude | 25600 |
| Route | GUGAM A581 HUY W183 TRN W680 UBGUP |
| Aircraft | A320/M-SDE2E3FGILRWXY/LB2 |
Departure
| Time | N/A |
|---|---|
| Airport | Wuhan Tianhe International Airport (ZHHH) |
Arrival
| Time | 2026-04-21 15:20 |
|---|---|
| Airport | Guiyang Longdongbao International Airport (ZUGY) |
| Time | Latitude | Longitude | Altitude | Speed | Heading |
|---|---|---|---|---|---|
| 2026-04-21 15:04 | 26.36528 | 107.35855 | 13434 ft | 340 kts | 234° |
| 2026-04-21 15:06 | 26.28131 | 107.23536 | 11755 ft | 321 kts | 233° |
| 2026-04-21 15:06 | 26.26815 | 107.21604 | 11681 ft | 305 kts | 233° |
| 2026-04-21 15:06 | 26.25558 | 107.19767 | 11565 ft | 292 kts | 233° |
| 2026-04-21 15:06 | 26.24452 | 107.17932 | 11438 ft | 280 kts | 243° |
| 2026-04-21 15:07 | 26.23869 | 107.15918 | 11297 ft | 271 kts | 260° |
| 2026-04-21 15:07 | 26.23908 | 107.13851 | 11183 ft | 263 kts | 273° |
| 2026-04-21 15:07 | 26.24185 | 107.11876 | 11010 ft | 255 kts | 275° |
| 2026-04-21 15:07 | 26.24385 | 107.10595 | 10802 ft | 253 kts | 275° |
| 2026-04-21 15:08 | 26.24733 | 107.07987 | 10167 ft | 258 kts | 273° |
| 2026-04-21 15:08 | 26.24935 | 107.05982 | 9675 ft | 262 kts | 272° |
| 2026-04-21 15:08 | 26.25131 | 107.03986 | 9457 ft | 255 kts | 273° |
| 2026-04-21 15:08 | 26.25341 | 107.02062 | 9253 ft | 248 kts | 273° |
| 2026-04-21 15:09 | 26.25560 | 107.00154 | 8874 ft | 248 kts | 274° |
| 2026-04-21 15:09 | 26.25771 | 106.98228 | 8447 ft | 251 kts | 274° |
| 2026-04-21 15:09 | 26.25977 | 106.96307 | 8108 ft | 250 kts | 275° |
| 2026-04-21 15:09 | 26.26185 | 106.94387 | 7917 ft | 250 kts | 275° |
| 2026-04-21 15:10 | 26.26393 | 106.92489 | 7907 ft | 249 kts | 275° |
| 2026-04-21 15:10 | 26.26442 | 106.90559 | 7895 ft | 246 kts | 257° |
| 2026-04-21 15:10 | 26.25735 | 106.88909 | 7891 ft | 240 kts | 223° |
| 2026-04-21 15:10 | 26.24338 | 106.87991 | 7901 ft | 234 kts | 189° |
| 2026-04-21 15:11 | 26.22729 | 106.87820 | 7913 ft | 232 kts | 180° |
| 2026-04-21 15:11 | 26.21125 | 106.87689 | 7904 ft | 227 kts | 185° |
| 2026-04-21 15:11 | 26.19618 | 106.87228 | 7887 ft | 220 kts | 207° |
| 2026-04-21 15:11 | 26.18525 | 106.86058 | 7889 ft | 224 kts | 241° |
| 2026-04-21 15:12 | 26.18188 | 106.84364 | 7894 ft | 229 kts | 273° |
| 2026-04-21 15:12 | 26.18759 | 106.81471 | 7917 ft | 231 kts | 283° |
| 2026-04-21 15:12 | 26.19197 | 106.79164 | 7782 ft | 227 kts | 278° |
| 2026-04-21 15:13 | 26.19444 | 106.77405 | 7422 ft | 227 kts | 278° |
| 2026-04-21 15:13 | 26.19817 | 106.75729 | 7047 ft | 227 kts | 300° |
| 2026-04-21 15:13 | 26.20907 | 106.74552 | 6869 ft | 219 kts | 340° |
| 2026-04-21 15:13 | 26.21899 | 106.74322 | 6867 ft | 216 kts | 5° |
| 2026-04-21 15:14 | 26.26815 | 106.75280 | 6904 ft | 215 kts | 12° |
| 2026-04-21 15:14 | 26.28295 | 106.75552 | 6906 ft | 216 kts | 12° |
| 2026-04-21 15:15 | 26.29775 | 106.75833 | 6906 ft | 216 kts | 12° |
| 2026-04-21 15:15 | 26.31251 | 106.76121 | 6904 ft | 216 kts | 12° |
| 2026-04-21 15:15 | 26.32726 | 106.76406 | 6907 ft | 216 kts | 12° |
| 2026-04-21 15:15 | 26.34177 | 106.76687 | 6930 ft | 203 kts | 12° |
| 2026-04-21 15:16 | 26.35508 | 106.76942 | 6905 ft | 187 kts | 12° |
| 2026-04-21 15:16 | 26.36806 | 106.77197 | 6780 ft | 190 kts | 12° |
| 2026-04-21 15:16 | 26.38103 | 106.77452 | 6563 ft | 188 kts | 12° |
| 2026-04-21 15:16 | 26.39377 | 106.77692 | 6326 ft | 182 kts | 12° |
| 2026-04-21 15:17 | 26.40583 | 106.77928 | 6094 ft | 170 kts | 12° |
| 2026-04-21 15:17 | 26.41714 | 106.78148 | 5870 ft | 160 kts | 12° |
| 2026-04-21 15:17 | 26.42789 | 106.78356 | 5678 ft | 155 kts | 12° |
| 2026-04-21 15:17 | 26.43807 | 106.78551 | 5471 ft | 147 kts | 11° |
| 2026-04-21 15:18 | 26.44827 | 106.78751 | 5277 ft | 146 kts | 11° |
| 2026-04-21 15:18 | 26.45488 | 106.78880 | 5149 ft | 146 kts | 10° |
| 2026-04-21 15:18 | 26.46483 | 106.79071 | 4955 ft | 145 kts | 10° |
| 2026-04-21 15:18 | 26.47473 | 106.79263 | 4763 ft | 144 kts | 10° |
| 2026-04-21 15:19 | 26.49436 | 106.79664 | 4380 ft | 143 kts | 11° |
| 2026-04-21 15:19 | 26.50416 | 106.79842 | 4188 ft | 142 kts | 10° |
| 2026-04-21 15:19 | 26.51707 | 106.80084 | 3928 ft | 142 kts | 10° |
| 2026-04-21 15:20 | 26.52675 | 106.80273 | 3765 ft | 138 kts | 11° |
| 2026-04-21 15:20 | 26.53521 | 106.80440 | 3751 ft | 101 kts | 10° |
| 2026-04-21 15:20 | 26.54040 | 106.80538 | 3751 ft | 50 kts | 9° |
| 2026-04-21 15:20 | 26.54282 | 106.80587 | 3751 ft | 32 kts | 10° |
| 2026-04-21 15:21 | 26.54428 | 106.80586 | 3751 ft | 31 kts | 349° |
| 2026-04-21 15:21 | 26.54535 | 106.80553 | 3751 ft | 11 kts | 342° |
| 2026-04-21 15:21 | 26.54604 | 106.80529 | 3751 ft | 11 kts | 342° |
| 2026-04-21 15:21 | 26.54711 | 106.80488 | 3751 ft | 5 kts | 320° |
| 2026-04-21 15:22 | 26.54722 | 106.80463 | 3751 ft | 5 kts | 282° |
| 2026-04-21 15:22 | 26.54731 | 106.80408 | 3751 ft | 5 kts | 280° |
| 2026-04-21 15:22 | 26.54737 | 106.80366 | 3751 ft | 6 kts | 280° |
| 2026-04-21 15:22 | 26.54745 | 106.80320 | 3751 ft | 6 kts | 280° |
| 2026-04-21 15:23 | 26.54753 | 106.80267 | 3751 ft | 7 kts | 280° |
| 2026-04-21 15:23 | 26.54762 | 106.80208 | 3751 ft | 8 kts | 279° |
| 2026-04-21 15:23 | 26.54772 | 106.80142 | 3751 ft | 9 kts | 279° |
| 2026-04-21 15:23 | 26.54783 | 106.80070 | 3751 ft | 10 kts | 280° |
| 2026-04-21 15:24 | 26.54792 | 106.80019 | 3751 ft | 10 kts | 280° |
| 2026-04-21 15:24 | 26.54806 | 106.79941 | 3751 ft | 7 kts | 302° |
| 2026-04-21 15:24 | 26.54844 | 106.79934 | 3751 ft | 5 kts | 9° |
| 2026-04-21 15:24 | 26.54862 | 106.79938 | 3751 ft | 0 kts | 9° |